createdAt,value
2023-03-22T00:00:32.116Z,49.15
2023-03-22T00:03:24.321Z,49.78
2023-03-22T00:05:58.409Z,47.90
2023-03-22T00:08:31.186Z,54.63
2023-03-22T00:11:04.388Z,51.85
2023-03-22T00:13:39.867Z,57.17
2023-03-22T00:16:13.100Z,51.97
2023-03-22T00:18:46.377Z,48.65
2023-03-22T00:21:19.144Z,52.20
2023-03-22T00:23:51.987Z,52.08
2023-03-22T00:26:24.494Z,49.85
2023-03-22T00:28:57.283Z,41.70
2023-03-22T00:31:30.057Z,47.72
2023-03-22T00:34:02.905Z,50.40
2023-03-22T00:36:37.992Z,45.95
2023-03-22T00:39:10.922Z,50.40
2023-03-22T00:41:43.468Z,43.92
2023-03-22T00:44:16.418Z,48.60
2023-03-22T00:46:48.876Z,50.75
2023-03-22T00:49:21.978Z,47.40
2023-03-22T00:51:54.936Z,49.92
2023-03-22T00:54:27.710Z,47.90
2023-03-22T00:57:00.367Z,48.63
2023-03-22T00:59:38.431Z,47.90
2023-03-22T01:02:14.990Z,50.75
2023-03-22T01:04:48.295Z,54.45
2023-03-22T01:07:21.604Z,52.00
2023-03-22T01:09:54.352Z,49.38
2023-03-22T01:12:27.204Z,49.08
2023-03-22T01:14:59.994Z,53.33
2023-03-22T01:17:32.547Z,50.65
2023-03-22T01:20:06.931Z,52.25
2023-03-22T01:22:39.465Z,58.67
2023-03-22T01:25:12.320Z,54.25
2023-03-22T01:27:45.391Z,49.40
2023-03-22T01:30:18.325Z,59.55
2023-03-22T01:32:50.871Z,52.53
2023-03-22T01:35:23.782Z,59.50
2023-03-22T01:37:56.288Z,61.22
2023-03-22T01:40:29.485Z,53.65
2023-03-22T01:43:01.985Z,55.22
2023-03-22T01:45:48.154Z,56.97
2023-03-22T01:48:28.600Z,56.78
2023-03-22T01:51:09.435Z,50.97
2023-03-22T01:53:46.176Z,52.42
2023-03-22T01:56:23.650Z,58.38
2023-03-22T01:58:57.187Z,51.22
2023-03-22T02:01:30.889Z,57.10
2023-03-22T02:04:10.065Z,54.00
2023-03-22T02:06:43.570Z,59.53
2023-03-22T02:09:22.144Z,57.85
2023-03-22T02:12:33.088Z,56.17
2023-03-22T02:15:34.654Z,56.15
2023-03-22T02:18:34.287Z,48.35
2023-03-22T02:21:30.980Z,58.35
2023-03-22T02:24:09.549Z,53.35
2023-03-22T02:27:00.042Z,55.75
2023-03-22T02:29:38.143Z,55.80
2023-03-22T02:32:37.284Z,60.13
2023-03-22T02:35:41.571Z,52.30
2023-03-22T02:38:45.902Z,51.63
2023-03-22T02:41:27.209Z,51.38
2023-03-22T02:44:22.088Z,43.53
2023-03-22T02:47:04.494Z,48.53
2023-03-22T02:49:52.942Z,48.20
2023-03-22T02:52:28.348Z,48.45
2023-03-22T02:55:19.662Z,44.85
2023-03-22T02:58:24.115Z,45.47
2023-03-22T03:01:02.660Z,47.10
2023-03-22T03:03:38.065Z,51.40
2023-03-22T03:06:15.896Z,48.95
2023-03-22T03:08:53.545Z,52.13
2023-03-22T03:11:26.141Z,56.85
2023-03-22T03:13:59.037Z,52.13
2023-03-22T03:16:35.269Z,53.95
2023-03-22T03:19:17.883Z,50.42
2023-03-22T03:22:07.990Z,51.95
2023-03-22T03:27:37.460Z,53.87
2023-03-22T03:30:20.297Z,50.92
2023-03-22T03:33:05.496Z,51.08
2023-03-22T03:35:46.687Z,47.63
2023-03-22T03:38:24.504Z,47.85
2023-03-22T03:41:15.624Z,55.88
2023-03-22T03:43:49.424Z,49.70
2023-03-22T03:46:22.667Z,45.28
2023-03-22T03:48:57.486Z,47.58
2023-03-22T03:51:30.520Z,46.10
2023-03-22T03:54:03.057Z,49.13
2023-03-22T03:56:35.860Z,47.60
2023-03-22T03:59:09.260Z,46.65
2023-03-22T04:01:50.079Z,50.20
2023-03-22T04:07:01.103Z,47.88
2023-03-22T04:09:36.391Z,45.90
2023-03-22T04:12:12.044Z,50.10
2023-03-22T04:14:45.032Z,44.08
2023-03-22T04:17:17.909Z,45.97
2023-03-22T04:19:56.523Z,46.83
2023-03-22T04:22:29.330Z,57.38
2023-03-22T04:25:02.087Z,49.90
2023-03-22T04:27:34.883Z,51.88
2023-03-22T04:30:11.150Z,46.03
2023-03-22T04:32:43.942Z,43.72
2023-03-22T04:35:17.205Z,51.53
2023-03-22T04:37:51.656Z,47.25
2023-03-22T04:40:26.461Z,52.97
2023-03-22T04:42:59.316Z,50.67
2023-03-22T04:45:32.459Z,50.13
2023-03-22T04:48:07.889Z,47.47
2023-03-22T04:50:40.820Z,51.90
2023-03-22T04:53:13.785Z,52.10
2023-03-22T04:55:46.334Z,50.63
2023-03-22T04:58:22.152Z,49.88
2023-03-22T05:00:54.764Z,47.25
2023-03-22T05:03:27.535Z,47.22
2023-03-22T05:06:01.798Z,52.42
2023-03-22T05:08:34.935Z,58.80
2023-03-22T05:11:13.894Z,49.45
2023-03-22T05:13:46.787Z,54.15
2023-03-22T05:16:19.344Z,50.83
2023-03-22T05:18:54.541Z,53.60
2023-03-22T05:21:29.814Z,53.38
2023-03-22T05:24:03.289Z,49.83
2023-03-22T05:26:38.130Z,49.15
2023-03-22T05:29:11.800Z,52.78
2023-03-22T05:31:44.364Z,54.38
2023-03-22T05:34:17.186Z,54.80
2023-03-22T05:36:51.882Z,55.35
2023-03-22T05:39:24.674Z,52.58
2023-03-22T05:41:57.219Z,51.53
2023-03-22T05:44:30.045Z,55.38
2023-03-22T05:47:02.594Z,50.42
2023-03-22T05:49:37.782Z,53.53
2023-03-22T05:52:10.265Z,56.25
2023-03-22T05:54:45.824Z,54.67
2023-03-22T05:57:30.372Z,56.03
2023-03-22T06:00:18.928Z,60.88
2023-03-22T06:03:11.368Z,56.65
2023-03-22T06:06:01.471Z,53.45
2023-03-22T06:08:34.565Z,53.30
2023-03-22T06:11:07.951Z,61.50
2023-03-22T06:13:40.867Z,61.72
2023-03-22T06:16:13.536Z,56.08
2023-03-22T06:18:46.306Z,55.22
2023-03-22T06:21:18.801Z,63.58
2023-03-22T06:23:51.564Z,62.55
2023-03-22T06:26:24.055Z,61.00
2023-03-22T06:28:57.000Z,63.28
2023-03-22T06:31:29.945Z,56.10
2023-03-22T06:34:02.916Z,60.70
2023-03-22T06:36:37.411Z,58.78
2023-03-22T06:39:10.591Z,54.53
2023-03-22T06:41:43.112Z,54.35
2023-03-22T06:44:16.204Z,55.30
2023-03-22T06:46:48.731Z,56.53
2023-03-22T06:49:21.960Z,54.00
2023-03-22T06:51:54.569Z,52.53
2023-03-22T06:54:27.765Z,48.90
2023-03-22T06:57:00.419Z,54.28
2023-03-22T06:59:33.576Z,54.00
2023-03-22T07:02:06.610Z,54.03
2023-03-22T07:04:39.829Z,54.47
2023-03-22T07:07:12.500Z,54.78
2023-03-22T07:09:45.408Z,58.33
2023-03-22T07:12:18.763Z,55.13
2023-03-22T07:14:51.811Z,57.33
2023-03-22T07:17:24.375Z,58.30
2023-03-22T07:19:57.436Z,59.53
2023-03-22T07:22:29.960Z,59.97
2023-03-22T07:25:03.032Z,58.63
2023-03-22T07:27:36.442Z,55.30
2023-03-22T07:30:09.927Z,59.80
2023-03-22T07:32:42.452Z,54.75
2023-03-22T07:35:16.803Z,57.75
2023-03-22T07:37:49.389Z,57.17
2023-03-22T07:40:22.522Z,53.45
2023-03-22T07:42:55.969Z,59.42
2023-03-22T07:45:29.405Z,52.88
2023-03-22T07:48:02.110Z,56.95
2023-03-22T07:50:34.981Z,53.90
2023-03-22T07:53:07.530Z,57.72
2023-03-22T07:55:42.386Z,52.28
2023-03-22T07:58:15.067Z,61.03
2023-03-22T08:00:49.788Z,57.80
2023-03-22T08:03:23.302Z,57.85
2023-03-22T08:05:58.961Z,56.00
2023-03-22T08:08:31.461Z,56.13
2023-03-22T08:11:05.662Z,56.50
2023-03-22T08:13:38.455Z,58.78
2023-03-22T08:16:11.601Z,59.15
2023-03-22T08:18:45.347Z,65.10
2023-03-22T08:21:18.238Z,55.75
2023-03-22T08:23:51.236Z,53.28
2023-03-22T08:26:24.308Z,59.75
2023-03-22T08:28:57.295Z,54.05
2023-03-22T08:31:30.461Z,67.55
2023-03-22T08:34:03.012Z,61.28
2023-03-22T08:36:37.148Z,56.55
2023-03-22T08:39:09.765Z,63.20
2023-03-22T08:41:42.640Z,59.70
2023-03-22T08:44:15.316Z,57.72
2023-03-22T08:46:48.331Z,58.97
2023-03-22T08:49:21.575Z,56.55
2023-03-22T08:51:54.323Z,56.55
2023-03-22T08:54:28.232Z,59.60
2023-03-22T08:57:03.312Z,58.78
2023-03-22T08:59:35.885Z,56.45
2023-03-22T09:02:09.802Z,58.50
2023-03-22T09:04:42.842Z,57.50
2023-03-22T09:07:17.514Z,60.17
2023-03-22T09:09:50.528Z,49.47
2023-03-22T09:12:23.378Z,53.53
2023-03-22T09:14:56.991Z,51.40
2023-03-22T09:17:30.035Z,57.40
2023-03-22T09:20:12.402Z,54.53
2023-03-22T09:22:45.894Z,53.10
2023-03-22T09:25:18.974Z,48.25
2023-03-22T09:27:51.778Z,60.00
2023-03-22T09:30:24.342Z,56.75
2023-03-22T09:32:57.157Z,53.65
2023-03-22T09:35:30.060Z,52.85
2023-03-22T09:38:03.612Z,53.83
2023-03-22T09:40:41.471Z,47.63
2023-03-22T09:43:16.358Z,50.53
2023-03-22T09:45:51.189Z,49.90
2023-03-22T09:48:39.456Z,50.25
2023-03-22T09:51:38.392Z,45.65
2023-03-22T09:54:21.686Z,44.50
2023-03-22T09:57:19.101Z,47.58
2023-03-22T10:00:20.894Z,47.08
2023-03-22T10:03:05.833Z,44.78
2023-03-22T10:06:01.821Z,42.35
2023-03-22T10:08:44.704Z,43.00
2023-03-22T10:11:46.120Z,47.40
2023-03-22T10:14:32.162Z,41.17
2023-03-22T10:17:11.549Z,39.70
2023-03-22T10:19:55.479Z,36.63
2023-03-22T10:22:34.344Z,36.30
2023-03-22T10:25:09.411Z,31.90
2023-03-22T10:27:42.962Z,36.33
2023-03-22T10:30:27.417Z,33.83
2023-03-22T10:33:04.513Z,29.48
2023-03-22T10:35:38.277Z,34.30
2023-03-22T10:38:21.015Z,37.42
2023-03-22T10:40:57.158Z,31.83
2023-03-22T10:43:36.719Z,34.60
2023-03-22T10:46:18.726Z,30.67
2023-03-22T10:48:57.276Z,33.70
2023-03-22T10:51:36.946Z,37.33
2023-03-22T10:54:17.754Z,35.78
2023-03-22T10:56:50.322Z,34.60
2023-03-22T10:59:49.709Z,32.90
2023-03-22T11:02:31.198Z,36.45
2023-03-22T11:05:07.274Z,32.78
2023-03-22T11:07:44.625Z,36.20
2023-03-22T11:10:27.975Z,35.05
2023-03-22T11:13:09.636Z,33.53
2023-03-22T11:15:51.725Z,33.42
2023-03-22T11:18:28.882Z,31.80
2023-03-22T11:21:10.621Z,30.80
2023-03-22T11:23:55.831Z,29.52
2023-03-22T11:26:37.290Z,33.28
2023-03-22T11:29:18.461Z,27.52
2023-03-22T11:31:59.766Z,30.02
2023-03-22T11:34:32.365Z,30.10
2023-03-22T11:37:08.370Z,26.98
2023-03-22T11:39:49.480Z,24.90
2023-03-22T11:42:22.350Z,27.50
2023-03-22T11:44:56.929Z,28.38
2023-03-22T11:47:35.774Z,22.17
2023-03-22T11:50:20.788Z,25.23
2023-03-22T11:52:54.123Z,23.15
2023-03-22T11:55:27.125Z,27.50
2023-03-22T11:58:02.195Z,24.92
2023-03-22T12:00:37.806Z,24.65
2023-03-22T12:03:16.373Z,23.15
2023-03-22T12:05:50.918Z,19.27
2023-03-22T12:08:48.348Z,18.60
2023-03-22T12:11:37.587Z,18.38
2023-03-22T12:14:29.168Z,22.90
2023-03-22T12:17:05.143Z,17.25
2023-03-22T12:20:16.723Z,20.05
2023-03-22T12:22:54.826Z,19.45
2023-03-22T12:25:32.268Z,21.08
2023-03-22T12:28:09.406Z,20.60
2023-03-22T12:30:51.482Z,16.60
2023-03-22T12:33:29.483Z,16.58
2023-03-22T12:36:05.056Z,18.00
2023-03-22T12:38:54.054Z,21.33
2023-03-22T12:41:43.661Z,23.27
2023-03-22T12:44:32.965Z,18.33
2023-03-22T12:47:13.532Z,23.38
2023-03-22T12:50:07.851Z,18.40
2023-03-22T12:52:56.554Z,19.23
2023-03-22T12:55:35.911Z,17.73
2023-03-22T12:58:10.551Z,19.95
2023-03-22T13:01:15.655Z,17.27
2023-03-22T13:03:54.758Z,18.05
2023-03-22T13:06:41.356Z,17.77
2023-03-22T13:09:56.265Z,16.13
2023-03-22T13:12:31.981Z,18.17
2023-03-22T13:15:42.204Z,17.27
2023-03-22T13:18:35.698Z,15.68
2023-03-22T13:21:26.762Z,17.02
2023-03-22T13:24:10.047Z,18.23
2023-03-22T13:26:46.159Z,18.55
2023-03-22T13:29:45.613Z,17.58
2023-03-22T13:32:33.520Z,15.68
2023-03-22T13:35:23.674Z,17.25
2023-03-22T13:38:03.218Z,22.27
2023-03-22T13:41:03.956Z,18.63
2023-03-22T13:43:39.282Z,17.67
2023-03-22T13:46:20.863Z,19.85
2023-03-22T13:49:02.888Z,20.35
2023-03-22T13:51:35.775Z,16.85
2023-03-22T13:54:19.314Z,15.45
2023-03-22T13:57:01.035Z,14.70
2023-03-22T14:00:11.192Z,16.27
2023-03-22T14:02:46.068Z,16.50
2023-03-22T14:05:22.898Z,15.98
2023-03-22T14:07:58.189Z,19.02
2023-03-22T14:11:20.368Z,14.63
2023-03-22T14:13:59.637Z,15.05
2023-03-22T14:16:46.736Z,16.30
2023-03-22T14:19:25.740Z,19.85
